Time;durP1;ratioP1;P1;durP2;ratioP2;P2;SDS_P1;SDS_P2;PMS_P1;PMS_P2;Temp;Humidity;BMP_temperature;BMP_pressure;BME280_temperature;BME280_humidity;BME280_pressure;Samples;Min_cycle;Max_cycle;Signal;HPM_P1;HPM_P2
2023/04/11 00:01:21;;;;;;;23.13;2.87;;;11.10;99.90;;;;;;5024714;28;20602;-66
2023/04/11 00:03:47;;;;;;;14.03;2.83;;;11.10;99.90;;;;;;5012367;28;20188;-66
2023/04/11 00:06:12;;;;;;;14.07;2.67;;;10.90;99.90;;;;;;5017259;28;20590;-66
2023/04/11 00:08:38;;;;;;;12.97;3.57;;;10.90;99.90;;;;;;5016523;28;20222;-66
2023/04/11 00:11:04;;;;;;;13.70;2.43;;;10.90;99.90;;;;;;5021039;28;20548;-67
2023/04/11 00:13:30;;;;;;;13.73;3.27;;;10.90;99.90;;;;;;5010269;28;20284;-64
2023/04/11 00:15:56;;;;;;;19.97;3.97;;;10.90;99.90;;;;;;5009299;28;20207;-65
2023/04/11 00:18:24;;;;;;;13.63;3.43;;;10.90;99.90;;;;;;5024996;28;20237;-66
2023/04/11 00:20:50;;;;;;;8.50;2.87;;;10.80;99.90;;;;;;5017742;28;20683;-67
2023/04/11 00:23:15;;;;;;;11.00;2.80;;;10.80;99.90;;;;;;5022983;28;20183;-65
2023/04/11 00:25:41;;;;;;;12.53;3.63;;;10.80;99.90;;;;;;5024205;28;20187;-69
2023/04/11 00:28:07;;;;;;;7.37;2.60;;;10.80;99.90;;;;;;5016291;28;20227;-66
2023/04/11 00:30:32;;;;;;;9.30;2.13;;;10.80;99.90;;;;;;5022091;28;20596;-66
2023/04/11 00:32:58;;;;;;;13.93;3.43;;;10.70;99.90;;;;;;5023302;28;20221;-64
2023/04/11 00:35:24;;;;;;;8.17;2.17;;;10.60;99.90;;;;;;5014825;28;20669;-64
2023/04/11 00:37:54;;;;;;;20.23;2.17;;;10.70;99.90;;;;;;5029251;28;20286;-65
2023/04/11 00:40:21;;;;;;;10.70;2.87;;;10.70;99.90;;;;;;5020483;28;20207;-64
2023/04/11 00:42:47;;;;;;;9.70;2.90;;;10.60;99.90;;;;;;5019387;28;20230;-64
2023/04/11 00:45:13;;;;;;;12.73;2.50;;;10.60;99.90;;;;;;5015682;28;20649;-63
2023/04/11 00:47:40;;;;;;;11.50;2.80;;;10.60;99.90;;;;;;5001606;28;20214;-64
2023/04/11 00:50:07;;;;;;;11.00;3.10;;;10.60;99.90;;;;;;5023983;28;20536;-64
2023/04/11 00:52:34;;;;;;;19.70;7.50;;;10.60;99.90;;;;;;5021438;28;20194;-64
2023/04/11 00:55:02;;;;;;;20.27;3.47;;;10.60;99.90;;;;;;5016852;28;20199;-65
2023/04/11 00:57:29;;;;;;;11.83;2.83;;;10.50;99.90;;;;;;5012666;28;20652;-64
2023/04/11 00:59:56;;;;;;;10.37;3.03;;;10.50;99.90;;;;;;5020172;28;20284;-64
2023/04/11 01:02:23;;;;;;;6.17;2.00;;;10.40;99.90;;;;;;5019870;28;20186;-65
2023/04/11 01:04:50;;;;;;;10.47;2.83;;;10.30;99.90;;;;;;5011401;28;20550;-64
2023/04/11 01:07:17;;;;;;;12.17;2.43;;;10.30;99.90;;;;;;5016536;28;20194;-65
2023/04/11 01:09:44;;;;;;;7.80;2.67;;;10.30;99.90;;;;;;5018666;28;20194;-65
2023/04/11 01:12:11;;;;;;;10.00;2.67;;;10.20;99.90;;;;;;5017281;28;20187;-64
2023/04/11 01:14:38;;;;;;;10.97;2.20;;;10.20;99.90;;;;;;5028181;28;20187;-69
2023/04/11 01:17:06;;;;;;;8.37;2.10;;;10.10;99.90;;;;;;5012070;28;20294;-64
2023/04/11 01:19:32;;;;;;;13.93;3.10;;;10.20;99.90;;;;;;5003040;28;20271;-64
2023/04/11 01:22:00;;;;;;;11.07;1.87;;;10.10;99.90;;;;;;5013898;28;20197;-65
2023/04/11 01:24:26;;;;;;;8.73;2.43;;;10.10;99.90;;;;;;5010868;28;20195;-64
2023/04/11 01:26:52;;;;;;;6.00;2.80;;;10.00;99.90;;;;;;5011231;28;20193;-65
2023/04/11 01:29:18;;;;;;;12.47;2.87;;;10.10;99.90;;;;;;5008435;28;20191;-66
2023/04/11 01:31:44;;;;;;;10.63;2.57;;;10.20;99.90;;;;;;5012279;28;20251;-64
2023/04/11 01:34:13;;;;;;;13.37;3.30;;;10.10;99.90;;;;;;5021714;28;20222;-64
2023/04/11 01:36:40;;;;;;;8.20;2.40;;;10.10;99.90;;;;;;4993945;28;20276;-68
2023/04/11 01:39:07;;;;;;;7.73;2.23;;;10.10;99.90;;;;;;5018068;28;20207;-64
2023/04/11 01:41:34;;;;;;;13.20;2.13;;;10.20;99.90;;;;;;5017401;28;20278;-64
2023/04/11 01:44:01;;;;;;;15.13;3.70;;;10.30;99.90;;;;;;5028777;28;20643;-65
2023/04/11 01:46:27;;;;;;;13.10;2.93;;;10.20;99.90;;;;;;5010321;28;20298;-66
2023/04/11 01:48:55;;;;;;;5.73;3.10;;;10.20;99.90;;;;;;5026037;28;20218;-66
2023/04/11 01:51:20;;;;;;;18.73;4.20;;;10.10;99.90;;;;;;4995476;28;20212;-65
2023/04/11 01:53:46;;;;;;;12.27;2.80;;;10.00;99.90;;;;;;5014718;28;20222;-65
2023/04/11 01:56:12;;;;;;;8.50;3.20;;;10.00;99.90;;;;;;5008599;28;20600;-64
2023/04/11 01:58:38;;;;;;;12.27;2.37;;;9.90;99.90;;;;;;5011169;28;20208;-65
2023/04/11 02:01:04;;;;;;;16.53;3.27;;;9.90;99.90;;;;;;5022388;28;20199;-67
2023/04/11 02:03:30;;;;;;;11.13;2.87;;;10.00;99.90;;;;;;5021342;28;20239;-66
2023/04/11 02:05:56;;;;;;;11.23;2.67;;;10.00;99.90;;;;;;5006028;28;20195;-67
2023/04/11 02:08:22;;;;;;;17.93;4.47;;;10.00;99.90;;;;;;5014847;28;20197;-64
2023/04/11 02:10:47;;;;;;;10.33;3.00;;;10.00;99.90;;;;;;5017550;28;20336;-65
2023/04/11 02:13:13;;;;;;;6.27;2.07;;;10.10;99.90;;;;;;5020802;28;20192;-64
2023/04/11 02:15:39;;;;;;;5.93;1.57;;;10.00;99.90;;;;;;5017793;28;20187;-65
2023/04/11 02:18:05;;;;;;;18.53;4.93;;;9.90;99.90;;;;;;5017983;28;20231;-64
2023/04/11 02:20:31;;;;;;;15.87;3.17;;;9.70;99.90;;;;;;5004625;28;20204;-65
2023/04/11 02:22:57;;;;;;;8.30;2.20;;;9.80;99.90;;;;;;5019441;28;20191;-65
2023/04/11 02:25:23;;;;;;;11.47;2.27;;;9.90;99.90;;;;;;5013719;28;20179;-64
2023/04/11 02:27:49;;;;;;;6.77;2.30;;;9.90;99.90;;;;;;5007178;28;20247;-65
2023/04/11 02:30:14;;;;;;;13.37;2.70;;;9.80;99.90;;;;;;5027340;28;20237;-64
2023/04/11 02:32:40;;;;;;;7.23;2.97;;;9.80;99.90;;;;;;5023727;28;20602;-65
2023/04/11 02:35:09;;;;;;;6.33;1.70;;;9.90;99.90;;;;;;5015836;28;20191;-65
2023/04/11 02:37:35;;;;;;;16.70;2.10;;;9.80;99.90;;;;;;5011922;28;20184;-65
2023/04/11 02:40:02;;;;;;;5.70;1.73;;;9.70;99.90;;;;;;5008803;28;20313;-66
2023/04/11 02:42:28;;;;;;;7.80;2.43;;;9.70;99.90;;;;;;5024782;28;20207;-64
2023/04/11 02:44:57;;;;;;;13.17;3.03;;;9.70;99.90;;;;;;5013793;28;20238;-64
2023/04/11 02:47:23;;;;;;;12.57;2.67;;;9.70;99.90;;;;;;5028517;28;20190;-64
2023/04/11 02:49:48;;;;;;;14.17;2.93;;;9.80;99.90;;;;;;5009764;28;20315;-66
2023/04/11 02:52:14;;;;;;;13.37;3.03;;;9.90;99.90;;;;;;5038860;28;20195;-64
2023/04/11 02:54:40;;;;;;;13.27;2.17;;;9.80;99.90;;;;;;5015672;28;20710;-66
2023/04/11 02:57:06;;;;;;;6.90;1.80;;;9.80;99.90;;;;;;5023354;28;20191;-64
2023/04/11 02:59:31;;;;;;;21.10;3.37;;;9.70;99.90;;;;;;5013066;28;20215;-65
2023/04/11 03:01:58;;;;;;;6.93;1.57;;;9.60;99.90;;;;;;5024962;28;20196;-64
2023/04/11 03:04:23;;;;;;;3.00;1.60;;;9.60;99.90;;;;;;5012171;28;20190;-64
2023/04/11 03:06:49;;;;;;;10.63;2.63;;;9.60;99.90;;;;;;5028761;28;20187;-65
2023/04/11 03:09:15;;;;;;;12.47;2.63;;;9.50;99.90;;;;;;5008292;28;20680;-65
2023/04/11 03:11:40;;;;;;;7.27;1.77;;;9.50;99.90;;;;;;5027253;28;20237;-65
2023/04/11 03:14:06;;;;;;;13.07;2.47;;;9.30;99.90;;;;;;5015093;28;20585;-66
2023/04/11 03:16:31;;;;;;;8.27;2.83;;;9.30;99.90;;;;;;5019531;28;20211;-65
2023/04/11 03:18:57;;;;;;;14.63;2.20;;;9.40;99.90;;;;;;5021261;28;20336;-65
2023/04/11 03:21:24;;;;;;;4.80;1.20;;;9.40;99.90;;;;;;5020356;28;20274;-66
2023/04/11 03:23:50;;;;;;;7.43;2.17;;;9.50;99.90;;;;;;5032950;28;20643;-66
2023/04/11 03:26:17;;;;;;;8.43;2.00;;;9.60;99.90;;;;;;5030943;28;20193;-65
2023/04/11 03:28:44;;;;;;;8.40;3.17;;;9.50;99.90;;;;;;5017632;28;20182;-65
2023/04/11 03:31:10;;;;;;;11.83;1.90;;;9.50;99.90;;;;;;5016630;28;20752;-65
2023/04/11 03:33:36;;;;;;;7.27;2.20;;;9.40;99.90;;;;;;5006632;28;20190;-65
2023/04/11 03:36:02;;;;;;;4.37;1.43;;;9.50;99.90;;;;;;5013354;28;20227;-66
2023/04/11 03:38:28;;;;;;;2.77;1.80;;;9.50;99.90;;;;;;5023386;28;20245;-65
2023/04/11 03:40:54;;;;;;;9.77;1.93;;;9.40;99.90;;;;;;5000572;28;20192;-64
2023/04/11 03:43:19;;;;;;;18.17;2.67;;;9.40;99.90;;;;;;5024642;28;20536;-64
2023/04/11 03:45:45;;;;;;;11.07;2.47;;;9.40;99.90;;;;;;5017773;28;20218;-64
2023/04/11 03:48:11;;;;;;;17.83;3.67;;;9.40;99.90;;;;;;5000820;28;20303;-70
2023/04/11 03:50:37;;;;;;;9.50;1.83;;;9.30;99.90;;;;;;5017783;28;20191;-71
2023/04/11 03:53:03;;;;;;;10.23;2.27;;;9.40;99.90;;;;;;5021451;28;20184;-64
2023/04/11 03:55:29;;;;;;;13.63;2.53;;;9.40;99.90;;;;;;5019385;28;20210;-66
2023/04/11 03:57:55;;;;;;;11.37;2.23;;;9.30;99.90;;;;;;5030552;28;20186;-65
2023/04/11 04:00:21;;;;;;;5.63;1.67;;;9.30;99.90;;;;;;5027250;28;20224;-64
2023/04/11 04:02:47;;;;;;;7.33;2.83;;;9.30;99.90;;;;;;5009989;28;20268;-65
2023/04/11 04:05:12;;;;;;;5.93;1.70;;;9.30;99.90;;;;;;5006130;28;20188;-64
2023/04/11 04:07:38;;;;;;;9.67;2.33;;;9.40;99.90;;;;;;5022184;28;20239;-67
2023/04/11 04:10:05;;;;;;;11.80;2.13;;;9.40;99.90;;;;;;5027216;28;20196;-65
2023/04/11 04:12:31;;;;;;;7.97;3.47;;;9.30;99.90;;;;;;5023653;28;20606;-65
2023/04/11 04:14:56;;;;;;;11.77;2.90;;;9.20;99.90;;;;;;5019970;28;20201;-65
2023/04/11 04:17:22;;;;;;;6.23;1.60;;;9.30;99.90;;;;;;5023376;28;20222;-65
2023/04/11 04:19:48;;;;;;;6.83;1.50;;;9.30;99.90;;;;;;5016370;28;20215;-65
2023/04/11 04:22:16;;;;;;;9.07;2.10;;;9.30;99.90;;;;;;5007618;28;20262;-65
2023/04/11 04:24:45;;;;;;;16.87;2.40;;;9.30;99.90;;;;;;5018370;28;20607;-65
2023/04/11 04:27:13;;;;;;;11.70;2.47;;;9.30;99.90;;;;;;5013346;28;20225;-64
2023/04/11 04:29:46;;;;;;;13.93;2.57;;;9.30;99.90;;;;;;5015831;28;20210;-66
2023/04/11 04:32:13;;;;;;;6.70;2.33;;;9.30;99.90;;;;;;5006867;28;20186;-65
2023/04/11 04:34:53;;;;;;;9.40;2.70;;;9.20;99.90;;;;;;5000267;28;20192;-65
2023/04/11 04:37:20;;;;;;;13.37;4.13;;;9.20;99.90;;;;;;5022871;28;20175;-66
2023/04/11 04:40:00;;;;;;;7.57;2.40;;;9.20;99.90;;;;;;5021003;28;20282;-66
2023/04/11 04:42:28;;;;;;;4.23;1.97;;;9.10;99.90;;;;;;5030017;28;20183;-66
2023/04/11 04:44:55;;;;;;;13.10;2.53;;;9.10;99.90;;;;;;5010580;28;20250;-66
2023/04/11 04:47:23;;;;;;;4.30;2.10;;;9.20;99.90;;;;;;5024268;28;20717;-65
2023/04/11 04:49:56;;;;;;;6.70;2.60;;;9.20;99.90;;;;;;5020958;28;20188;-65
2023/04/11 04:52:26;;;;;;;13.80;1.87;;;9.10;99.90;;;;;;5007455;28;20186;-65
2023/04/11 04:54:56;;;;;;;11.33;2.50;;;9.10;99.90;;;;;;5007776;28;20185;-65
2023/04/11 04:57:22;;;;;;;6.53;2.87;;;9.00;99.90;;;;;;5029620;28;20286;-65
2023/04/11 04:59:48;;;;;;;3.33;1.60;;;8.90;99.90;;;;;;5030134;28;20588;-64
2023/04/11 05:02:15;;;;;;;11.27;2.87;;;9.00;99.90;;;;;;5000033;28;20180;-65
2023/04/11 05:04:43;;;;;;;4.67;2.50;;;9.10;99.90;;;;;;4994585;28;20176;-65
2023/04/11 05:07:09;;;;;;;5.67;2.47;;;9.10;99.90;;;;;;5018686;28;20190;-65
2023/04/11 05:09:35;;;;;;;11.77;1.53;;;9.20;99.90;;;;;;5022375;28;20190;-66
2023/04/11 05:12:01;;;;;;;7.83;2.10;;;9.00;99.90;;;;;;5012259;28;20179;-65
2023/04/11 05:14:27;;;;;;;16.10;2.10;;;9.00;99.90;;;;;;5026796;28;20190;-65
2023/04/11 05:16:52;;;;;;;10.27;2.20;;;9.10;99.90;;;;;;5013916;28;20206;-65
2023/04/11 05:19:18;;;;;;;8.40;2.00;;;9.00;99.90;;;;;;5023164;28;20579;-66
2023/04/11 05:21:44;;;;;;;4.23;2.03;;;8.90;99.90;;;;;;5010161;28;20247;-65
2023/04/11 05:24:09;;;;;;;12.03;2.03;;;9.00;99.90;;;;;;5006030;28;20271;-65
2023/04/11 05:26:35;;;;;;;1.67;1.57;;;9.00;99.90;;;;;;5004317;28;20193;-77
2023/04/11 05:29:01;;;;;;;4.57;1.97;;;9.10;99.90;;;;;;5009230;28;20196;-67
2023/04/11 05:31:27;;;;;;;8.07;2.20;;;9.00;99.90;;;;;;5015608;28;20201;-68
2023/04/11 05:33:53;;;;;;;12.27;2.30;;;9.10;99.90;;;;;;5018740;28;20273;-67
2023/04/11 05:36:19;;;;;;;12.53;3.70;;;9.20;99.90;;;;;;5008984;28;20267;-67
2023/04/11 05:38:45;;;;;;;7.20;2.20;;;9.10;99.90;;;;;;4995433;28;20184;-68
2023/04/11 05:41:11;;;;;;;8.57;2.17;;;9.20;99.90;;;;;;5040397;28;20187;-67
2023/04/11 05:43:37;;;;;;;8.13;2.40;;;9.20;99.90;;;;;;5015322;28;20186;-67
2023/04/11 05:46:03;;;;;;;4.37;2.13;;;9.30;99.90;;;;;;5014810;28;20215;-68
2023/04/11 05:48:29;;;;;;;14.33;2.47;;;9.30;99.90;;;;;;5005134;28;20191;-69
2023/04/11 05:50:56;;;;;;;5.67;1.87;;;9.20;99.90;;;;;;5007482;28;20686;-73
2023/04/11 05:53:22;;;;;;;5.67;1.60;;;9.20;99.90;;;;;;5007372;28;20507;-70
2023/04/11 05:55:48;;;;;;;8.67;2.17;;;9.20;99.90;;;;;;5010541;28;20188;-68
2023/04/11 05:58:14;;;;;;;9.27;1.77;;;9.20;99.90;;;;;;5017591;28;20696;-67
2023/04/11 06:00:40;;;;;;;10.80;2.13;;;9.20;99.90;;;;;;5004535;28;20565;-66
2023/04/11 06:03:08;;;;;;;7.87;1.93;;;9.20;99.90;;;;;;5014517;28;20198;-66
2023/04/11 06:05:34;;;;;;;4.03;2.27;;;9.30;99.90;;;;;;5021454;28;20190;-68
2023/04/11 06:08:02;;;;;;;6.83;1.93;;;9.30;99.90;;;;;;5006899;28;20684;-68
2023/04/11 06:10:28;;;;;;;3.43;1.73;;;9.30;99.90;;;;;;5006912;28;20662;-68
2023/04/11 06:12:54;;;;;;;14.63;2.00;;;9.20;99.90;;;;;;5007318;28;20194;-70
2023/04/11 06:15:24;;;;;;;5.17;1.20;;;9.10;99.90;;;;;;5014671;28;20195;-68
2023/04/11 06:17:50;;;;;;;11.23;2.17;;;9.20;99.90;;;;;;5012528;28;21116;-68
2023/04/11 06:20:16;;;;;;;4.50;2.27;;;9.30;99.90;;;;;;4999853;28;20219;-69
2023/04/11 06:22:42;;;;;;;10.47;2.10;;;9.30;99.90;;;;;;5006871;28;20179;-68
2023/04/11 06:25:09;;;;;;;4.63;2.77;;;9.50;99.90;;;;;;5004772;28;20560;-68
2023/04/11 06:27:35;;;;;;;6.70;1.93;;;9.60;99.90;;;;;;5001573;28;20239;-66
2023/04/11 06:30:01;;;;;;;4.83;1.20;;;9.60;99.90;;;;;;5035356;28;20203;-67
2023/04/11 06:32:27;;;;;;;6.00;1.70;;;9.70;99.90;;;;;;5001415;28;20188;-67
2023/04/11 06:34:53;;;;;;;5.93;2.57;;;9.70;99.90;;;;;;5003067;28;20195;-68
2023/04/11 06:37:19;;;;;;;11.40;2.50;;;9.80;99.90;;;;;;5007111;28;20541;-67
2023/04/11 06:39:45;;;;;;;4.13;1.90;;;9.90;99.90;;;;;;5006313;28;20215;-70
2023/04/11 06:42:11;;;;;;;8.33;2.13;;;9.90;99.90;;;;;;5019999;28;20272;-66
2023/04/11 06:44:36;;;;;;;5.13;1.23;;;9.90;99.90;;;;;;4987330;28;20196;-72
2023/04/11 06:47:02;;;;;;;20.97;2.80;;;9.90;99.90;;;;;;5012970;28;20647;-71
2023/04/11 06:49:28;;;;;;;3.47;1.70;;;9.80;99.90;;;;;;5004970;28;20191;-67
2023/04/11 06:51:54;;;;;;;6.23;2.10;;;10.00;99.90;;;;;;5007245;28;20671;-66
2023/04/11 06:54:20;;;;;;;5.30;2.60;;;10.00;99.90;;;;;;5005894;28;20373;-66
2023/04/11 06:56:46;;;;;;;5.57;2.03;;;10.10;99.90;;;;;;5012580;28;20230;-67
2023/04/11 06:59:12;;;;;;;8.30;2.47;;;10.20;99.90;;;;;;5027237;28;20218;-69
2023/04/11 07:01:38;;;;;;;7.67;2.53;;;10.20;99.90;;;;;;5013762;28;20238;-68
2023/04/11 07:04:05;;;;;;;10.83;1.50;;;10.10;99.90;;;;;;5016814;28;20230;-68
2023/04/11 07:06:31;;;;;;;8.77;1.67;;;10.20;99.90;;;;;;5028244;28;20309;-68
2023/04/11 07:08:59;;;;;;;13.73;3.67;;;10.20;99.90;;;;;;5026085;28;20278;-68
2023/04/11 07:11:25;;;;;;;7.53;2.33;;;10.40;99.90;;;;;;5021942;28;20266;-69
2023/04/11 07:13:51;;;;;;;5.40;2.23;;;10.50;99.90;;;;;;5008631;28;20278;-69
2023/04/11 07:16:17;;;;;;;3.53;2.10;;;10.50;99.90;;;;;;5033246;28;20232;-69
2023/04/11 07:18:43;;;;;;;5.33;2.13;;;10.60;99.90;;;;;;5016975;28;20314;-71
2023/04/11 07:21:12;;;;;;;8.17;2.10;;;10.80;99.90;;;;;;5019692;28;20200;-69
2023/04/11 07:23:39;;;;;;;4.87;1.67;;;11.00;99.90;;;;;;5028721;28;20183;-69
2023/04/11 07:26:05;;;;;;;4.33;1.60;;;11.30;99.90;;;;;;5027878;28;20644;-68
2023/04/11 07:28:31;;;;;;;4.07;1.88;;;11.50;99.90;;;;;;5021675;28;20194;-70
2023/04/11 07:30:57;;;;;;;7.35;1.65;;;11.80;99.90;;;;;;5026749;28;20192;-70
2023/04/11 07:33:22;;;;;;;7.32;1.70;;;12.40;99.90;;;;;;5030572;28;20182;-67
2023/04/11 07:35:48;;;;;;;7.05;1.63;;;12.80;99.90;;;;;;5017040;28;20184;-67
2023/04/11 07:38:28;;;;;;;1.73;1.10;;;12.70;99.90;;;;;;5045398;28;20192;-70
2023/04/11 07:40:55;;;;;;;3.40;1.30;;;13.00;99.90;;;;;;5017201;28;20196;-69
2023/04/11 07:43:22;;;;;;;3.58;1.70;;;13.00;99.90;;;;;;5024971;28;20258;-70
2023/04/11 07:45:47;;;;;;;3.65;1.90;;;13.60;99.90;;;;;;5020727;28;20561;-70
2023/04/11 07:48:13;;;;;;;4.60;1.88;;;14.20;99.90;;;;;;5000381;28;20276;-68
2023/04/11 07:50:39;;;;;;;4.82;1.95;;;15.20;99.90;;;;;;5003325;28;20647;-70
2023/04/11 07:53:04;;;;;;;4.22;1.40;;;16.30;99.90;;;;;;5007032;28;20210;-70
2023/04/11 07:55:30;;;;;;;5.30;2.42;;;17.20;99.90;;;;;;5023618;28;20534;-68
2023/04/11 07:57:56;;;;;;;6.30;1.48;;;17.90;99.90;;;;;;5025916;28;20193;-67
2023/04/11 08:00:22;;;;;;;5.15;1.95;;;18.30;99.90;;;;;;5019859;28;20559;-68
2023/04/11 08:02:48;;;;;;;6.57;1.83;;;18.30;99.90;;;;;;5015627;28;20595;-69
2023/04/11 08:05:14;;;;;;;6.82;1.63;;;18.40;99.90;;;;;;5031292;28;20278;-68
2023/04/11 08:07:40;;;;;;;5.80;1.50;;;18.90;99.90;;;;;;5031234;28;20723;-67
2023/04/11 08:10:07;;;;;;;5.55;1.45;;;18.60;99.90;;;;;;5028183;28;20212;-70
2023/04/11 08:12:32;;;;;;;2.92;1.08;;;18.70;99.90;;;;;;5014421;28;20192;-69
2023/04/11 08:14:59;;;;;;;3.40;1.10;;;18.60;99.90;;;;;;5026821;28;20175;-68
2023/04/11 08:17:27;;;;;;;6.55;1.02;;;19.70;99.90;;;;;;5032521;28;20258;-67
2023/04/11 08:19:56;;;;;;;7.47;1.70;;;19.30;99.90;;;;;;5018692;28;20203;-67
2023/04/11 08:22:23;;;;;;;4.95;1.60;;;19.60;99.90;;;;;;5029315;28;20199;-67
2023/04/11 08:24:48;;;;;;;1.98;1.17;;;19.20;99.90;;;;;;5016710;28;20237;-67
2023/04/11 08:27:14;;;;;;;5.13;1.70;;;19.50;99.90;;;;;;5013626;28;20192;-67
2023/04/11 08:29:40;;;;;;;3.90;1.33;;;19.20;99.90;;;;;;5010707;28;20196;-67
2023/04/11 08:32:05;;;;;;;10.95;1.35;;;18.90;99.90;;;;;;5008511;28;20199;-67
2023/04/11 08:34:32;;;;;;;8.55;1.65;;;19.10;99.90;;;;;;5021088;28;20199;-71
2023/04/11 08:36:57;;;;;;;8.98;1.63;;;19.10;99.90;;;;;;5033389;28;20547;-67
2023/04/11 08:39:23;;;;;;;6.65;1.67;;;19.10;99.90;;;;;;5016809;28;20212;-70
2023/04/11 08:41:49;;;;;;;3.22;0.98;;;18.80;99.90;;;;;;5016528;28;20183;-69
2023/04/11 08:44:15;;;;;;;5.15;1.40;;;18.60;99.90;;;;;;5025233;28;20186;-71
2023/04/11 08:46:42;;;;;;;5.70;1.30;;;19.00;99.90;;;;;;5003398;28;20191;-68
2023/04/11 08:49:08;;;;;;;7.55;2.03;;;19.50;99.90;;;;;;5027094;28;20199;-68
2023/04/11 08:51:33;;;;;;;8.85;1.00;;;20.10;99.90;;;;;;5022656;28;20193;-68
2023/04/11 08:54:04;;;;;;;12.48;1.30;;;20.20;99.90;;;;;;5007435;28;20186;-69
2023/04/11 08:56:30;;;;;;;4.40;2.08;;;20.30;99.90;;;;;;5013317;28;20547;-68
2023/04/11 08:58:56;;;;;;;3.60;1.55;;;19.30;99.90;;;;;;5060186;28;20242;-69
2023/04/11 09:01:32;;;;;;;2.42;1.20;;;17.90;99.90;;;;;;5020415;28;20679;-68
2023/04/11 09:04:03;;;;;;;5.65;1.10;;;16.60;99.90;;;;;;5025461;28;20522;-70
2023/04/11 09:06:31;;;;;;;3.75;1.50;;;15.80;99.90;;;;;;5016518;28;20171;-68
2023/04/11 09:09:04;;;;;;;6.70;1.52;;;15.40;99.90;;;;;;5015774;28;20559;-68
2023/04/11 09:11:30;;;;;;;4.25;1.20;;;15.30;99.90;;;;;;5008666;28;20178;-68
2023/04/11 09:14:10;;;;;;;8.95;1.70;;;15.00;99.90;;;;;;5028992;28;20536;-67
2023/04/11 09:16:36;;;;;;;7.15;1.50;;;14.90;99.90;;;;;;5012779;28;20183;-67
2023/04/11 09:19:02;;;;;;;2.92;1.52;;;14.70;99.90;;;;;;5015804;28;20246;-66
2023/04/11 09:21:28;;;;;;;3.03;1.50;;;14.50;99.90;;;;;;5008661;28;20180;-79
2023/04/11 09:24:14;;;;;;;6.63;1.38;;;14.40;99.90;;;;;;5029236;28;20191;-80
2023/04/11 09:26:40;;;;;;;3.85;1.95;;;14.10;99.90;;;;;;5008196;28;20244;-68
2023/04/11 09:29:06;;;;;;;8.43;1.80;;;13.90;99.90;;;;;;5007517;28;20274;-70
2023/04/11 09:31:42;;;;;;;5.25;1.38;;;13.70;99.90;;;;;;5028861;28;20183;-67
2023/04/11 09:34:08;;;;;;;4.78;1.75;;;13.90;99.90;;;;;;5023188;28;20561;-67
2023/04/11 09:36:34;;;;;;;2.58;1.27;;;14.10;99.90;;;;;;5002249;28;20184;-67
2023/04/11 09:39:15;;;;;;;2.67;1.20;;;14.30;99.90;;;;;;5032208;28;20219;-68
2023/04/11 09:41:41;;;;;;;6.15;1.38;;;14.40;99.90;;;;;;5030799;28;20178;-67
2023/04/11 09:44:07;;;;;;;4.97;1.52;;;14.30;99.90;;;;;;5000573;28;20242;-66
2023/04/11 09:46:32;;;;;;;1.95;1.13;;;14.40;99.90;;;;;;5022101;28;20200;-66
2023/04/11 09:49:00;;;;;;;5.65;1.27;;;14.70;99.90;;;;;;5016349;28;20194;-66
2023/04/11 09:51:26;;;;;;;2.95;1.35;;;14.90;99.90;;;;;;5007480;28;20196;-66
2023/04/11 09:53:52;;;;;;;3.15;1.52;;;14.90;99.90;;;;;;5022826;28;20197;-66
2023/04/11 09:56:19;;;;;;;4.45;2.10;;;14.70;99.90;;;;;;5019517;28;20188;-67
2023/04/11 09:58:46;;;;;;;3.30;1.17;;;14.30;99.90;;;;;;5009154;28;20195;-67
2023/04/11 10:01:13;;;;;;;7.38;1.80;;;14.50;99.90;;;;;;5009736;28;20206;-66
2023/04/11 10:03:39;;;;;;;7.68;1.50;;;14.90;99.90;;;;;;5017206;28;20191;-66
2023/04/11 10:06:13;;;;;;;5.63;2.30;;;15.10;99.90;;;;;;5028007;28;20541;-67
2023/04/11 10:08:40;;;;;;;1.85;1.40;;;15.20;99.90;;;;;;5014475;28;20245;-67
2023/04/11 10:11:13;;;;;;;6.75;2.67;;;15.00;99.90;;;;;;5015191;28;20192;-67
2023/04/11 10:13:46;;;;;;;6.55;1.95;;;14.80;99.90;;;;;;5021607;28;20214;-67
2023/04/11 10:16:14;;;;;;;4.28;1.92;;;14.70;99.90;;;;;;5005847;28;20188;-67
2023/04/11 10:18:51;;;;;;;3.60;1.08;;;14.80;99.90;;;;;;5011290;28;20230;-68
2023/04/11 10:21:29;;;;;;;22.10;2.80;;;15.10;99.90;;;;;;5021120;28;20222;-67
2023/04/11 10:24:15;;;;;;;6.22;1.58;;;15.50;99.90;;;;;;5017358;28;20188;-66
2023/04/11 10:26:50;;;;;;;6.30;2.17;;;15.60;99.90;;;;;;5017772;28;20194;-66
2023/04/11 10:29:46;;;;;;;5.25;2.72;;;15.60;99.90;;;;;;5029395;28;20703;-67
2023/04/11 10:32:14;;;;;;;2.78;1.65;;;15.80;99.90;;;;;;5008140;28;20195;-67
2023/04/11 10:34:49;;;;;;;4.30;2.17;;;15.90;99.90;;;;;;5015330;28;20188;-66
2023/04/11 10:37:16;;;;;;;4.70;1.90;;;16.00;99.90;;;;;;5024530;28;20644;-67
2023/04/11 10:39:54;;;;;;;5.35;1.40;;;15.90;99.90;;;;;;4995770;28;20661;-70
2023/04/11 10:42:30;;;;;;;3.55;1.75;;;15.40;99.90;;;;;;5007486;28;20277;-68
2023/04/11 10:45:23;;;;;;;8.48;2.28;;;15.20;99.90;;;;;;5007068;28;20202;-67
2023/04/11 10:48:06;;;;;;;3.22;1.92;;;15.10;99.90;;;;;;5016800;28;20194;-67
2023/04/11 10:50:39;;;;;;;8.93;2.10;;;15.20;99.90;;;;;;5015506;28;20193;-68
2023/04/11 10:53:06;;;;;;;8.13;2.35;;;15.30;99.90;;;;;;5010309;28;20769;-68
2023/04/11 10:55:42;;;;;;;5.53;1.70;;;15.30;99.90;;;;;;5015507;28;20179;-70
2023/04/11 10:58:18;;;;;;;1.60;1.50;;;15.30;99.90;;;;;;5029239;28;20272;-67
2023/04/11 11:00:47;;;;;;;6.18;2.20;;;15.30;99.90;;;;;;5008314;28;20692;-67
2023/04/11 11:03:24;;;;;;;3.78;1.70;;;15.00;99.90;;;;;;5022651;28;20190;-67
2023/04/11 11:06:16;;;;;;;2.63;1.73;;;14.60;99.90;;;;;;5028102;28;20183;-68
2023/04/11 11:08:45;;;;;;;2.05;1.55;;;14.50;99.90;;;;;;5004670;28;20560;-67
2023/04/11 11:11:12;;;;;;;6.15;1.45;;;14.70;99.90;;;;;;5019816;28;20183;-67
2023/04/11 11:13:44;;;;;;;7.18;1.92;;;15.00;99.90;;;;;;5015019;28;20555;-67
2023/04/11 11:16:17;;;;;;;7.93;1.90;;;15.40;99.90;;;;;;5001754;28;20267;-68
2023/04/11 11:18:49;;;;;;;5.22;1.65;;;15.60;99.90;;;;;;5006516;28;20250;-67
2023/04/11 11:21:18;;;;;;;8.98;1.80;;;16.00;99.90;;;;;;5025265;28;20305;-67
2023/04/11 11:24:00;;;;;;;3.42;2.13;;;16.30;99.90;;;;;;5010789;28;20278;-67
2023/04/11 11:26:40;;;;;;;3.80;1.65;;;16.50;99.90;;;;;;5015774;28;20179;-68
2023/04/11 11:29:07;;;;;;;6.95;1.95;;;16.60;99.90;;;;;;5029619;28;20245;-68
2023/04/11 11:31:40;;;;;;;5.63;1.73;;;16.70;99.90;;;;;;5009118;28;20181;-67
2023/04/11 11:34:07;;;;;;;3.25;1.35;;;16.80;99.90;;;;;;5016075;28;20266;-67
2023/04/11 11:36:40;;;;;;;1.65;1.35;;;16.90;99.90;;;;;;5016790;28;20212;-68
2023/04/11 11:39:06;;;;;;;2.78;1.50;;;16.90;99.90;;;;;;5014633;28;20208;-67
2023/04/11 11:41:34;;;;;;;1.52;1.42;;;17.00;99.90;;;;;;5009235;28;20624;-69
2023/04/11 11:44:01;;;;;;;3.50;2.17;;;16.90;99.90;;;;;;5023227;28;20190;-69
2023/04/11 11:46:32;;;;;;;9.38;1.73;;;16.70;99.90;;;;;;5009666;28;20198;-68
2023/04/11 11:49:02;;;;;;;1.95;1.33;;;16.80;99.90;;;;;;5009579;28;20174;-68
2023/04/11 11:51:41;;;;;;;8.18;2.22;;;16.90;99.90;;;;;;5022335;28;20183;-69
2023/04/11 11:54:09;;;;;;;5.20;1.60;;;16.70;99.90;;;;;;5002616;28;20180;-67
2023/04/11 11:56:36;;;;;;;3.53;1.50;;;16.90;99.90;;;;;;5005590;28;20188;-68
2023/04/11 11:59:05;;;;;;;4.30;1.88;;;17.20;99.90;;;;;;5021649;28;20204;-68
2023/04/11 12:01:35;;;;;;;2.33;1.02;;;17.30;99.90;;;;;;5027394;28;20664;-65
2023/04/11 12:04:04;;;;;;;1.33;0.88;;;17.10;99.90;;;;;;4996249;28;20669;-67
2023/04/11 12:06:31;;;;;;;4.93;1.65;;;17.00;99.90;;;;;;5020652;28;20289;-66
2023/04/11 12:09:07;;;;;;;2.33;1.05;;;16.80;99.90;;;;;;5019436;28;20528;-67
2023/04/11 12:11:40;;;;;;;8.93;3.30;;;16.70;99.90;;;;;;5039238;28;20174;-68
2023/04/11 12:14:06;;;;;;;1.17;0.77;;;16.70;99.90;;;;;;5011146;28;20194;-68
2023/04/11 12:16:32;;;;;;;3.50;1.13;;;16.90;99.90;;;;;;5030884;28;20182;-66
2023/04/11 12:19:01;;;;;;;3.80;1.02;;;17.20;99.90;;;;;;5017738;28;20279;-68
2023/04/11 12:21:28;;;;;;;1.65;1.30;;;17.10;99.90;;;;;;4998203;28;20646;-67
2023/04/11 12:23:54;;;;;;;6.28;1.42;;;17.00;99.90;;;;;;4997691;28;20184;-68
2023/04/11 12:26:20;;;;;;;3.45;1.23;;;17.20;99.90;;;;;;5015671;28;20184;-68
2023/04/11 12:28:47;;;;;;;3.55;1.48;;;17.50;99.90;;;;;;5024401;28;20650;-66
2023/04/11 12:31:13;;;;;;;6.28;1.13;;;17.40;99.90;;;;;;5018142;28;20250;-68
2023/04/11 12:33:39;;;;;;;5.45;1.50;;;17.50;99.90;;;;;;5023015;28;20183;-68
2023/04/11 12:36:06;;;;;;;1.50;1.40;;;17.40;99.90;;;;;;5016817;28;20193;-67
2023/04/11 12:38:32;;;;;;;4.30;1.58;;;17.10;99.90;;;;;;4998675;28;20572;-68
2023/04/11 12:40:59;;;;;;;3.40;1.50;;;16.90;99.90;;;;;;5009413;28;20204;-68
2023/04/11 12:43:24;;;;;;;5.18;1.40;;;16.60;99.90;;;;;;5018770;28;20653;-68
2023/04/11 12:45:50;;;;;;;5.63;1.38;;;16.40;99.90;;;;;;5001352;28;20283;-67
2023/04/11 12:48:16;;;;;;;4.85;1.10;;;16.20;99.90;;;;;;5021268;28;20215;-68
2023/04/11 12:50:41;;;;;;;8.60;2.30;;;16.30;99.90;;;;;;5010412;28;20611;-68